SBUL/UDI METAR and TAF weather

Enter ICAO airport designator
Station Type Date Time Source
SBUL METAR 2020/09/19 06:00 UTC NOAA

SBUL 190600Z 12003KT CAVOK 23/07 Q1015


Station Type Date Time Source
SBUL Decoded METAR 2020/09/19 06:00 UTC NOAA

Uberlandia , Brazil (SBUL) 18-53S 048-14W
Sep 19, 2020 - 02:00 AM EDT / 2020.09.19 0600 UTC
Wind: from the ESE (120 degrees) at 3 MPH (3 KT):0
Visibility: greater than 7 mile(s):0
Temperature: 73 F (23 C)
Dew Point: 44 F (7 C)
Relative Humidity: 35%
Pressure (altimeter): 29.97 in. Hg (1015 hPa)
ob: SBUL 190600Z 12003KT CAVOK 23/07 Q1015
cycle: 6

Station Type Date Time Source
SBUL TAF 2020/09/19 06:33 UTC NOAA

TAF SBUL 190007Z 1906/1918 12002KT 8000 NSCTN20/1909Z TX37/1917Z
BECMG 1909/1911 14002KT
BECMG 1912/1914 09003KT
BECMG 1915/1917 32002KT
RMK PHG

Example: see airport list